createdAt,value
2023-04-25T00:01:10.443Z,84.11
2023-04-25T00:03:37.754Z,83.81
2023-04-25T00:06:04.776Z,83.80
2023-04-25T00:08:31.992Z,83.92
2023-04-25T00:11:00.224Z,83.81
2023-04-25T00:13:27.693Z,83.82
2023-04-25T00:15:54.597Z,83.49
2023-04-25T00:18:24.177Z,83.22
2023-04-25T00:20:51.275Z,83.01
2023-04-25T00:23:21.416Z,82.88
2023-04-25T00:25:51.242Z,82.59
2023-04-25T00:28:18.300Z,82.00
2023-04-25T00:30:45.451Z,82.08
2023-04-25T00:33:12.469Z,81.60
2023-04-25T00:35:39.707Z,82.66
2023-04-25T00:38:06.518Z,82.06
2023-04-25T00:40:33.573Z,81.97
2023-04-25T00:43:00.451Z,81.46
2023-04-25T00:45:31.214Z,80.69
2023-04-25T00:47:58.937Z,81.74
2023-04-25T00:50:26.656Z,81.20
2023-04-25T00:52:53.782Z,81.56
2023-04-25T00:55:21.119Z,81.48
2023-04-25T00:57:48.178Z,81.06
2023-04-25T01:00:16.040Z,81.31
2023-04-25T01:02:44.006Z,81.22
2023-04-25T01:05:11.453Z,80.75
2023-04-25T01:07:38.498Z,80.60
2023-04-25T01:10:07.380Z,80.63
2023-04-25T01:12:34.608Z,80.27
2023-04-25T01:15:02.503Z,81.08
2023-04-25T01:17:30.367Z,80.37
2023-04-25T01:19:57.414Z,79.91
2023-04-25T01:22:24.577Z,79.63
2023-04-25T01:24:52.142Z,79.26
2023-04-25T01:27:19.427Z,79.08
2023-04-25T01:29:47.152Z,77.62
2023-04-25T01:32:15.309Z,78.60
2023-04-25T01:34:42.674Z,77.75
2023-04-25T01:37:09.469Z,76.51
2023-04-25T01:39:37.065Z,76.91
2023-04-25T01:42:04.044Z,75.63
2023-04-25T01:44:30.998Z,77.26
2023-04-25T01:46:57.989Z,76.93
2023-04-25T01:49:26.497Z,76.56
2023-04-25T01:51:53.624Z,75.83
2023-04-25T01:54:20.682Z,75.99
2023-04-25T01:56:52.377Z,75.11
2023-04-25T01:59:21.086Z,76.05
2023-04-25T02:01:48.171Z,75.09
2023-04-25T02:04:15.476Z,76.10
2023-04-25T02:06:42.513Z,75.33
2023-04-25T02:09:09.946Z,74.26
2023-04-25T02:11:36.846Z,74.21
2023-04-25T02:14:03.880Z,74.00
2023-04-25T02:16:31.993Z,74.32
2023-04-25T02:19:00.344Z,74.24
2023-04-25T02:21:27.759Z,73.94
2023-04-25T02:23:55.103Z,74.14
2023-04-25T02:26:22.259Z,73.59
2023-04-25T02:28:49.434Z,73.21
2023-04-25T02:31:16.559Z,73.56
2023-04-25T02:33:43.978Z,74.47
2023-04-25T02:36:10.833Z,73.32
2023-04-25T02:38:37.737Z,74.32
2023-04-25T02:41:04.658Z,73.23
2023-04-25T02:43:31.987Z,72.68
2023-04-25T02:45:58.874Z,73.27
2023-04-25T02:48:26.011Z,72.53
2023-04-25T02:50:52.969Z,71.25
2023-04-25T02:53:20.324Z,71.19
2023-04-25T02:55:47.324Z,72.17
2023-04-25T02:58:14.277Z,72.32
2023-04-25T03:00:41.213Z,73.34
2023-04-25T03:03:11.127Z,73.93
2023-04-25T03:05:38.098Z,73.18
2023-04-25T03:08:05.178Z,74.07
2023-04-25T03:10:32.072Z,72.89
2023-04-25T03:12:59.165Z,71.98
2023-04-25T03:15:26.153Z,73.18
2023-04-25T03:17:56.295Z,72.08
2023-04-25T03:20:23.229Z,72.52
2023-04-25T03:22:50.050Z,71.05
2023-04-25T03:25:17.226Z,72.20
2023-04-25T03:27:44.035Z,71.45
2023-04-25T03:30:11.354Z,71.31
2023-04-25T03:32:38.300Z,70.78
2023-04-25T03:35:06.670Z,70.04
2023-04-25T03:37:34.136Z,70.65
2023-04-25T03:40:00.945Z,70.84
2023-04-25T03:42:27.922Z,69.70
2023-04-25T03:44:54.876Z,69.21
2023-04-25T03:47:24.531Z,69.73
2023-04-25T03:49:52.994Z,70.06
2023-04-25T03:52:19.894Z,70.85
2023-04-25T03:54:47.052Z,71.48
2023-04-25T03:57:13.978Z,70.85
2023-04-25T03:59:41.084Z,71.70
2023-04-25T04:02:08.075Z,71.81
2023-04-25T04:04:35.068Z,72.07
2023-04-25T04:07:02.152Z,71.82
2023-04-25T04:09:29.147Z,73.16
2023-04-25T04:11:55.980Z,73.00
2023-04-25T04:14:23.148Z,73.15
2023-04-25T04:16:53.778Z,72.04
2023-04-25T04:19:20.594Z,71.11
2023-04-25T04:21:47.678Z,70.60
2023-04-25T04:24:14.874Z,68.57
2023-04-25T04:26:41.837Z,69.03
2023-04-25T04:29:09.942Z,68.07
2023-04-25T04:31:37.184Z,68.03
2023-04-25T04:34:04.760Z,67.47
2023-04-25T04:36:32.274Z,67.26
2023-04-25T04:38:59.150Z,66.99
2023-04-25T04:41:26.371Z,66.61
2023-04-25T04:43:54.505Z,67.34
2023-04-25T04:46:21.552Z,68.43
2023-04-25T04:48:48.823Z,70.82
2023-04-25T04:51:15.784Z,71.96
2023-04-25T04:53:42.747Z,72.62
2023-04-25T04:56:11.060Z,72.77
2023-04-25T04:58:38.066Z,73.54
2023-04-25T05:01:05.316Z,73.07
2023-04-25T05:03:32.468Z,73.62
2023-04-25T05:05:59.410Z,74.00
2023-04-25T05:08:26.152Z,73.60
2023-04-25T05:10:53.244Z,72.21
2023-04-25T05:13:20.104Z,72.68
2023-04-25T05:15:47.139Z,72.83
2023-04-25T05:18:16.818Z,73.11
2023-04-25T05:20:43.879Z,72.39
2023-04-25T05:23:10.788Z,72.79
2023-04-25T05:25:37.933Z,72.39
2023-04-25T05:28:05.013Z,69.26
2023-04-25T05:30:32.129Z,68.16
2023-04-25T05:32:58.963Z,66.74
2023-04-25T05:35:26.188Z,65.26
2023-04-25T05:37:53.110Z,65.10
2023-04-25T05:40:19.999Z,64.30
2023-04-25T05:42:47.362Z,64.34
2023-04-25T05:45:14.608Z,64.04
2023-04-25T05:47:41.897Z,63.55
2023-04-25T05:50:09.886Z,62.71
2023-04-25T05:52:36.891Z,63.34
2023-04-25T05:55:04.122Z,64.46
2023-04-25T05:57:31.154Z,64.31
2023-04-25T05:59:58.223Z,65.18
2023-04-25T06:02:25.311Z,65.59
2023-04-25T06:04:52.966Z,65.28
2023-04-25T06:07:21.453Z,66.57
2023-04-25T06:09:49.600Z,66.86
2023-04-25T06:12:16.608Z,66.39
2023-04-25T06:14:43.853Z,65.32
2023-04-25T06:17:10.782Z,64.29
2023-04-25T06:19:37.906Z,63.63
2023-04-25T06:22:04.804Z,64.11
2023-04-25T06:24:31.750Z,63.55
2023-04-25T06:26:58.618Z,63.10
2023-04-25T06:29:30.405Z,62.16
2023-04-25T06:31:58.293Z,60.99
2023-04-25T06:34:25.415Z,59.86
2023-04-25T06:36:52.317Z,60.13
2023-04-25T06:39:21.370Z,59.76
2023-04-25T06:41:48.741Z,60.05
2023-04-25T06:44:19.622Z,60.32
2023-04-25T06:46:46.546Z,57.37
2023-04-25T06:49:16.214Z,56.51
2023-04-25T06:51:43.663Z,55.87
2023-04-25T06:54:11.035Z,55.88
2023-04-25T06:56:38.213Z,57.46
2023-04-25T06:59:05.235Z,58.36
2023-04-25T07:01:32.122Z,59.60
2023-04-25T07:03:59.414Z,58.87
2023-04-25T07:06:28.316Z,59.45
2023-04-25T07:08:55.978Z,58.05
2023-04-25T07:11:22.994Z,58.25
2023-04-25T07:13:49.941Z,58.32
2023-04-25T07:16:17.947Z,57.37
2023-04-25T07:18:44.902Z,56.80
2023-04-25T07:21:11.743Z,56.76
2023-04-25T07:23:41.841Z,56.60
2023-04-25T07:26:09.240Z,54.67
2023-04-25T07:28:36.473Z,53.75
2023-04-25T07:31:04.094Z,52.13
2023-04-25T07:33:31.086Z,51.24
2023-04-25T07:36:01.080Z,51.23
2023-04-25T07:38:27.970Z,49.93
2023-04-25T07:40:54.944Z,49.76
2023-04-25T07:43:21.999Z,50.37
2023-04-25T07:45:49.535Z,50.05
2023-04-25T07:48:20.181Z,50.33
2023-04-25T07:50:46.900Z,52.52
2023-04-25T07:53:14.338Z,50.18
2023-04-25T07:55:41.676Z,51.53
2023-04-25T07:58:09.490Z,50.67
2023-04-25T08:00:37.126Z,51.87
2023-04-25T08:03:04.300Z,50.22
2023-04-25T08:05:31.379Z,44.96
2023-04-25T08:07:58.452Z,44.89
2023-04-25T08:10:25.392Z,48.26
2023-04-25T08:12:52.363Z,49.86
2023-04-25T08:15:19.487Z,51.36
2023-04-25T08:17:46.870Z,48.00
2023-04-25T08:20:16.523Z,39.94
2023-04-25T08:22:44.130Z,30.99
2023-04-25T08:25:10.978Z,32.81
2023-04-25T08:27:38.022Z,38.18
2023-04-25T08:30:05.437Z,39.28
2023-04-25T08:32:32.331Z,34.98
2023-04-25T08:34:59.149Z,30.57
2023-04-25T08:37:26.956Z,27.87
2023-04-25T08:39:54.522Z,24.95
2023-04-25T08:43:05.410Z,30.33
2023-04-25T08:45:34.031Z,33.63
2023-04-25T08:48:02.589Z,36.57
2023-04-25T08:50:32.902Z,39.15
2023-04-25T08:53:05.516Z,40.12
2023-04-25T08:55:33.135Z,41.91
2023-04-25T08:58:02.185Z,43.59
2023-04-25T09:00:29.337Z,39.91
2023-04-25T09:02:58.833Z,36.11
2023-04-25T09:05:30.060Z,36.89
2023-04-25T09:07:57.743Z,32.13
2023-04-25T09:10:24.788Z,32.50
2023-04-25T09:13:10.336Z,38.13
2023-04-25T09:15:52.789Z,52.95
2023-04-25T09:18:37.072Z,58.66
2023-04-25T09:21:14.305Z,59.85
2023-04-25T09:23:45.987Z,56.21
2023-04-25T09:26:18.185Z,52.73
2023-04-25T09:28:45.256Z,49.23
2023-04-25T09:31:14.864Z,46.66
2023-04-25T09:33:42.514Z,43.59
2023-04-25T09:36:14.526Z,44.36
2023-04-25T09:38:46.632Z,44.05
2023-04-25T09:41:14.345Z,43.96
2023-04-25T09:43:41.189Z,44.77
2023-04-25T09:46:15.053Z,44.73
2023-04-25T09:48:49.095Z,47.97
2023-04-25T09:51:16.137Z,44.94
2023-04-25T09:53:45.551Z,42.55
2023-04-25T09:56:14.381Z,42.51
2023-04-25T09:58:42.418Z,44.99
2023-04-25T10:01:12.399Z,44.91
2023-04-25T10:03:43.972Z,41.93
2023-04-25T10:06:20.722Z,33.71
2023-04-25T10:08:51.275Z,23.72
2023-04-25T10:11:19.032Z,18.24
2023-04-25T10:13:47.516Z,16.08
2023-04-25T10:16:14.906Z,14.89
2023-04-25T10:18:46.920Z,15.70
2023-04-25T10:21:15.612Z,15.71
2023-04-25T10:23:43.439Z,17.55
2023-04-25T10:26:14.717Z,19.47
2023-04-25T10:29:00.628Z,15.22
2023-04-25T10:31:27.901Z,20.46
2023-04-25T10:33:55.144Z,28.46
2023-04-25T10:36:23.976Z,33.13
2023-04-25T10:38:52.455Z,30.77
2023-04-25T10:41:21.705Z,26.15
2023-04-25T10:43:50.393Z,21.73
2023-04-25T10:46:27.636Z,18.46
2023-04-25T10:48:59.406Z,18.36
2023-04-25T10:51:50.894Z,20.95
2023-04-25T10:54:21.438Z,18.68
2023-04-25T10:56:52.953Z,19.55
2023-04-25T10:59:21.760Z,18.54
2023-04-25T11:01:56.179Z,19.64
2023-04-25T11:04:25.510Z,16.73
2023-04-25T11:07:11.305Z,17.23
2023-04-25T11:09:42.151Z,30.22
2023-04-25T11:12:10.954Z,39.67
2023-04-25T11:17:08.135Z,43.28
2023-04-25T11:19:35.236Z,35.25
2023-04-25T11:22:04.345Z,31.52
2023-04-25T11:24:33.297Z,22.74
2023-04-25T11:27:01.056Z,18.94
2023-04-25T11:29:31.399Z,19.62
2023-04-25T11:32:02.509Z,21.07
2023-04-25T11:34:32.066Z,18.53
2023-04-25T11:36:59.152Z,17.59
2023-04-25T11:39:27.380Z,16.27
2023-04-25T11:41:55.203Z,15.79
2023-04-25T11:44:23.082Z,14.91
2023-04-25T11:46:50.531Z,13.59
2023-04-25T11:49:19.713Z,15.56
2023-04-25T11:51:49.782Z,17.48
2023-04-25T11:54:17.343Z,18.31
2023-04-25T11:56:46.446Z,22.88
2023-04-25T11:59:14.559Z,26.34
2023-04-25T12:01:50.820Z,30.71
2023-04-25T12:04:26.819Z,35.33
2023-04-25T12:06:56.564Z,31.48
2023-04-25T12:09:35.300Z,29.32
2023-04-25T12:12:07.081Z,33.46
2023-04-25T12:14:37.079Z,35.29
2023-04-25T12:17:11.488Z,32.63
2023-04-25T12:19:42.012Z,34.33
2023-04-25T12:22:45.996Z,33.88
2023-04-25T12:25:14.381Z,34.65
2023-04-25T12:27:45.434Z,38.95
2023-04-25T12:30:15.397Z,42.40
2023-04-25T12:32:45.084Z,44.88
2023-04-25T12:35:12.527Z,43.39
2023-04-25T12:37:39.676Z,39.55
2023-04-25T12:40:07.826Z,39.29
2023-04-25T12:42:34.670Z,40.67
2023-04-25T12:45:01.758Z,41.97
2023-04-25T12:47:31.832Z,40.50
2023-04-25T12:49:59.856Z,41.28
2023-04-25T12:52:27.174Z,46.40
2023-04-25T12:54:59.619Z,54.42
2023-04-25T12:57:29.825Z,57.95
2023-04-25T12:59:56.919Z,60.63
2023-04-25T13:02:23.887Z,59.94
2023-04-25T13:04:55.155Z,60.99
2023-04-25T13:07:22.153Z,59.93
2023-04-25T13:09:49.063Z,63.10
2023-04-25T13:12:16.826Z,64.26
2023-04-25T13:14:43.833Z,64.75
2023-04-25T13:17:11.589Z,67.52
2023-04-25T13:19:40.066Z,64.47
2023-04-25T13:22:07.568Z,64.17
2023-04-25T13:24:37.342Z,59.52
2023-04-25T13:27:04.617Z,61.27
2023-04-25T13:29:31.481Z,61.92
2023-04-25T13:31:58.672Z,65.73
2023-04-25T13:34:26.296Z,68.09
2023-04-25T13:36:53.623Z,67.79
2023-04-25T13:39:21.185Z,65.38
2023-04-25T13:41:48.492Z,64.98
2023-04-25T13:44:16.130Z,63.12
2023-04-25T13:46:47.063Z,60.69
2023-04-25T13:49:14.611Z,62.12
2023-04-25T13:51:45.186Z,63.23
2023-04-25T13:54:14.187Z,63.46
2023-04-25T13:56:43.561Z,62.93
2023-04-25T13:59:10.834Z,61.75
2023-04-25T14:01:37.948Z,62.18
2023-04-25T14:04:06.640Z,58.75
2023-04-25T14:06:34.216Z,57.27
2023-04-25T14:09:02.422Z,58.54
2023-04-25T14:11:29.610Z,56.08
2023-04-25T14:13:56.556Z,52.05
2023-04-25T14:16:24.599Z,51.78
2023-04-25T14:18:51.751Z,52.55
2023-04-25T14:21:18.833Z,53.20
2023-04-25T14:23:46.638Z,53.48
2023-04-25T14:26:14.121Z,52.98
2023-04-25T14:28:41.322Z,50.18
2023-04-25T14:31:08.997Z,52.38
2023-04-25T14:33:36.639Z,49.39
2023-04-25T14:36:03.872Z,51.20
2023-04-25T14:38:30.871Z,49.01
2023-04-25T14:41:01.146Z,49.63
2023-04-25T14:43:28.036Z,52.95
2023-04-25T14:45:56.862Z,53.59
2023-04-25T14:48:25.453Z,53.24
2023-04-25T14:50:52.650Z,51.58
2023-04-25T14:53:25.342Z,51.05
2023-04-25T14:55:52.275Z,51.30
2023-04-25T14:58:19.602Z,50.27
2023-04-25T15:00:47.222Z,49.27
2023-04-25T15:03:18.057Z,51.77
2023-04-25T15:05:45.634Z,51.59
2023-04-25T15:08:12.490Z,50.12
2023-04-25T15:10:39.484Z,49.93
2023-04-25T15:13:06.774Z,50.52
2023-04-25T15:15:34.057Z,50.25
2023-04-25T15:18:01.547Z,49.56
2023-04-25T15:20:28.921Z,48.66
2023-04-25T15:22:56.462Z,52.70
2023-04-25T15:25:23.588Z,50.29
2023-04-25T15:27:53.989Z,51.67
2023-04-25T15:30:21.258Z,51.81
2023-04-25T15:32:48.770Z,47.87
2023-04-25T15:35:16.622Z,47.23
2023-04-25T15:37:43.939Z,49.43
2023-04-25T15:40:17.775Z,49.33
2023-04-25T15:42:54.057Z,50.53
2023-04-25T15:45:26.007Z,50.47
2023-04-25T15:47:55.496Z,52.06
2023-04-25T15:50:23.050Z,51.89
2023-04-25T15:52:51.649Z,52.97
2023-04-25T15:55:26.930Z,53.23
2023-04-25T15:57:54.452Z,51.89
2023-04-25T16:00:22.645Z,53.54
2023-04-25T16:02:50.066Z,52.70
2023-04-25T16:05:20.835Z,52.64
2023-04-25T16:07:48.736Z,53.77
2023-04-25T16:10:21.777Z,53.28
2023-04-25T16:12:50.716Z,53.71
2023-04-25T16:15:17.971Z,52.72
2023-04-25T16:17:46.208Z,53.91
2023-04-25T16:20:14.026Z,54.12
2023-04-25T16:22:42.445Z,53.70
2023-04-25T16:25:13.400Z,53.95
2023-04-25T16:27:40.688Z,53.76
2023-04-25T16:30:10.255Z,53.83
2023-04-25T16:32:39.210Z,50.15
2023-04-25T16:35:06.722Z,50.64
2023-04-25T16:37:33.987Z,51.12
2023-04-25T16:40:01.326Z,52.51
2023-04-25T16:42:28.414Z,52.56
2023-04-25T16:44:55.260Z,52.49
2023-04-25T16:47:22.305Z,54.89
2023-04-25T16:49:49.509Z,54.88
2023-04-25T16:52:16.912Z,57.77
2023-04-25T16:54:43.841Z,63.27
2023-04-25T16:57:11.820Z,66.05
2023-04-25T16:59:39.463Z,65.95
2023-04-25T17:02:10.949Z,63.18
2023-04-25T17:04:38.178Z,60.19
2023-04-25T17:07:05.742Z,61.06
2023-04-25T17:09:35.555Z,62.03
2023-04-25T17:12:03.997Z,62.38
2023-04-25T17:14:32.528Z,62.80
2023-04-25T17:16:59.306Z,63.49
2023-04-25T17:19:26.346Z,64.52
2023-04-25T17:21:53.446Z,64.14
2023-04-25T17:24:22.348Z,63.91
2023-04-25T17:26:49.472Z,63.21
2023-04-25T17:29:16.385Z,63.56
2023-04-25T17:31:44.416Z,65.28
2023-04-25T17:34:16.728Z,65.28
2023-04-25T17:36:48.038Z,65.54
2023-04-25T17:39:17.735Z,65.59
2023-04-25T17:41:45.032Z,66.26
2023-04-25T17:44:12.274Z,65.58
2023-04-25T17:46:39.310Z,65.60
2023-04-25T17:49:06.383Z,64.58
2023-04-25T17:51:33.468Z,64.22
2023-04-25T17:54:00.486Z,63.87
2023-04-25T17:56:27.880Z,64.28
2023-04-25T17:58:55.201Z,64.73
2023-04-25T18:01:23.027Z,65.06
2023-04-25T18:03:53.115Z,66.44
2023-04-25T18:06:20.015Z,67.26
2023-04-25T18:08:47.505Z,67.59
2023-04-25T18:11:17.286Z,68.36
2023-04-25T18:13:44.372Z,69.02
2023-04-25T18:16:12.061Z,69.60
2023-04-25T18:18:39.662Z,69.54
2023-04-25T18:21:09.780Z,70.60
2023-04-25T18:23:37.986Z,71.01
2023-04-25T18:26:05.812Z,70.36
2023-04-25T18:28:34.564Z,70.79
2023-04-25T18:31:01.568Z,70.76
2023-04-25T18:33:28.410Z,70.59
2023-04-25T18:35:59.144Z,70.71
2023-04-25T18:41:06.207Z,70.15
2023-04-25T18:43:37.450Z,71.32
2023-04-25T18:46:04.885Z,71.13
2023-04-25T18:48:32.052Z,70.06
2023-04-25T18:50:59.092Z,69.52
2023-04-25T18:53:26.056Z,70.41
2023-04-25T18:55:53.521Z,71.22
2023-04-25T18:58:20.535Z,71.85
2023-04-25T19:00:48.770Z,72.90
2023-04-25T19:03:15.910Z,71.63
2023-04-25T19:05:43.105Z,72.67
2023-04-25T19:08:09.991Z,72.93
2023-04-25T19:10:37.713Z,73.36
2023-04-25T19:13:05.121Z,72.91
2023-04-25T19:15:33.556Z,73.45
2023-04-25T19:18:01.315Z,72.60
2023-04-25T19:20:28.502Z,73.86
2023-04-25T19:22:55.634Z,73.74
2023-04-25T19:25:26.501Z,72.49
2023-04-25T19:27:53.551Z,72.22
2023-04-25T19:30:20.862Z,72.35
2023-04-25T19:32:47.909Z,73.05
2023-04-25T19:35:15.233Z,73.42
2023-04-25T19:37:46.796Z,74.32
2023-04-25T19:40:16.108Z,75.68
2023-04-25T19:42:44.105Z,75.77
2023-04-25T19:45:11.896Z,75.48
2023-04-25T19:47:42.658Z,75.56
2023-04-25T19:50:10.917Z,76.35
2023-04-25T19:52:39.044Z,76.45
2023-04-25T19:55:06.823Z,76.78
2023-04-25T19:57:34.617Z,76.32
2023-04-25T20:00:06.344Z,75.82
2023-04-25T20:02:33.436Z,76.90
2023-04-25T20:05:00.608Z,77.54
2023-04-25T20:07:27.581Z,78.13
2023-04-25T20:09:57.868Z,76.87
2023-04-25T20:12:24.924Z,77.90
2023-04-25T20:14:51.993Z,77.90
2023-04-25T20:17:21.650Z,77.78
2023-04-25T20:19:48.646Z,78.28
2023-04-25T20:22:15.445Z,78.46
2023-04-25T20:24:42.579Z,77.64
2023-04-25T20:27:09.504Z,78.56
2023-04-25T20:29:37.265Z,78.66
2023-04-25T20:32:04.522Z,78.53
2023-04-25T20:34:31.826Z,78.16
2023-04-25T20:36:59.418Z,79.02
2023-04-25T20:39:27.110Z,78.69
2023-04-25T20:41:54.949Z,79.32
2023-04-25T20:44:23.627Z,78.43
2023-04-25T20:46:50.824Z,78.07
2023-04-25T20:49:17.813Z,77.30
2023-04-25T20:51:44.812Z,77.29
2023-04-25T20:54:13.477Z,76.91
2023-04-25T20:56:40.535Z,76.21
2023-04-25T20:59:09.790Z,76.64
2023-04-25T21:01:36.990Z,76.96
2023-04-25T21:04:06.557Z,77.84
2023-04-25T21:06:34.886Z,77.67
2023-04-25T21:09:01.955Z,77.68
2023-04-25T21:11:28.796Z,78.33
2023-04-25T21:13:55.899Z,78.94
2023-04-25T21:16:22.970Z,77.65
2023-04-25T21:18:50.285Z,78.49
2023-04-25T21:21:17.667Z,78.62
2023-04-25T21:23:44.598Z,76.89
2023-04-25T21:26:11.761Z,76.81
2023-04-25T21:28:38.797Z,77.03
2023-04-25T21:31:05.871Z,77.87
2023-04-25T21:33:32.779Z,78.68
2023-04-25T21:35:59.652Z,78.84
2023-04-25T21:38:27.013Z,79.80
2023-04-25T21:40:54.008Z,81.01
2023-04-25T21:43:21.833Z,82.47
2023-04-25T21:46:11.478Z,82.51
2023-04-25T21:48:35.620Z,81.44
2023-04-25T21:51:02.568Z,81.75
2023-04-25T21:53:29.645Z,82.43
2023-04-25T21:55:59.364Z,83.10
2023-04-25T21:58:26.260Z,82.26
2023-04-25T22:00:53.300Z,83.23
2023-04-25T22:03:20.740Z,84.10
2023-04-25T22:05:50.198Z,83.47
2023-04-25T22:08:17.573Z,83.72
2023-04-25T22:10:44.577Z,83.08
2023-04-25T22:13:11.622Z,83.05
2023-04-25T22:15:41.066Z,81.98
2023-04-25T22:18:08.294Z,82.37
2023-04-25T22:20:35.485Z,82.90
2023-04-25T22:23:02.344Z,83.40
2023-04-25T22:25:30.062Z,84.36
2023-04-25T22:28:00.314Z,83.38
2023-04-25T22:30:30.994Z,82.84
2023-04-25T22:32:58.208Z,82.46
2023-04-25T22:35:25.090Z,83.42
2023-04-25T22:37:51.893Z,83.04
2023-04-25T22:40:19.199Z,82.93
2023-04-25T22:42:46.324Z,83.50
2023-04-25T22:45:13.605Z,83.59
2023-04-25T22:47:40.501Z,83.71
2023-04-25T22:50:12.729Z,83.58
2023-04-25T22:52:39.802Z,82.71
2023-04-25T22:55:07.610Z,81.69
2023-04-25T22:57:38.764Z,82.43
2023-04-25T23:00:11.924Z,83.65
2023-04-25T23:02:38.958Z,83.69
2023-04-25T23:05:07.358Z,83.73
2023-04-25T23:07:34.459Z,82.45
2023-04-25T23:10:01.486Z,83.81
2023-04-25T23:12:28.485Z,82.27
2023-04-25T23:14:55.363Z,83.09
2023-04-25T23:17:23.357Z,82.32
2023-04-25T23:19:50.260Z,82.89
2023-04-25T23:22:17.626Z,81.84
2023-04-25T23:24:45.057Z,81.10
2023-04-25T23:27:12.129Z,81.41
2023-04-25T23:29:40.844Z,81.03
2023-04-25T23:32:09.096Z,80.04
2023-04-25T23:34:37.913Z,79.45
2023-04-25T23:37:04.923Z,79.55
2023-04-25T23:39:31.848Z,80.42
2023-04-25T23:41:58.774Z,80.75
2023-04-25T23:44:26.134Z,80.73
2023-04-25T23:46:53.121Z,81.88
2023-04-25T23:49:20.108Z,81.79
2023-04-25T23:51:49.907Z,82.32
2023-04-25T23:54:16.745Z,81.76
2023-04-25T23:56:43.761Z,80.67
2023-04-25T23:59:10.838Z,80.33
